sensor_id;sensor_type;location;lat;lon;timestamp;P1;durP1;ratioP1;P2;durP2;ratioP2
49472;SDS011;67434;50.956;6.918;2023-09-30T00:02:21;0.38;;;0.13;;
49472;SDS011;67434;50.956;6.918;2023-09-30T00:04:47;1.13;;;0.73;;
49472;SDS011;67434;50.956;6.918;2023-09-30T00:07:12;9.85;;;0.77;;
49472;SDS011;67434;50.956;6.918;2023-09-30T00:09:38;0.43;;;0.30;;
49472;SDS011;67434;50.956;6.918;2023-09-30T00:12:04;0.88;;;0.40;;
49472;SDS011;67434;50.956;6.918;2023-09-30T00:14:30;1.33;;;0.57;;
49472;SDS011;67434;50.956;6.918;2023-09-30T00:16:55;8.05;;;0.90;;
49472;SDS011;67434;50.956;6.918;2023-09-30T00:19:21;2.17;;;0.63;;
49472;SDS011;67434;50.956;6.918;2023-09-30T00:21:48;2.15;;;0.40;;
49472;SDS011;67434;50.956;6.918;2023-09-30T00:24:13;1.45;;;1.00;;
49472;SDS011;67434;50.956;6.918;2023-09-30T00:26:39;1.17;;;0.93;;
49472;SDS011;67434;50.956;6.918;2023-09-30T00:29:04;1.00;;;0.52;;
49472;SDS011;67434;50.956;6.918;2023-09-30T00:31:30;2.08;;;0.40;;
49472;SDS011;67434;50.956;6.918;2023-09-30T00:33:56;0.98;;;0.55;;
49472;SDS011;67434;50.956;6.918;2023-09-30T00:36:22;2.17;;;0.80;;
49472;SDS011;67434;50.956;6.918;2023-09-30T00:38:49;2.13;;;0.73;;
49472;SDS011;67434;50.956;6.918;2023-09-30T00:41:14;1.40;;;1.10;;
49472;SDS011;67434;50.956;6.918;2023-09-30T00:43:40;0.90;;;0.28;;
49472;SDS011;67434;50.956;6.918;2023-09-30T00:46:48;5.03;;;2.30;;
49472;SDS011;67434;50.956;6.918;2023-09-30T00:48:57;2.83;;;1.15;;
49472;SDS011;67434;50.956;6.918;2023-09-30T00:51:23;2.47;;;1.17;;
49472;SDS011;67434;50.956;6.918;2023-09-30T00:53:53;2.20;;;1.02;;
49472;SDS011;67434;50.956;6.918;2023-09-30T00:56:22;1.17;;;1.02;;
49472;SDS011;67434;50.956;6.918;2023-09-30T00:58:50;1.05;;;0.68;;
49472;SDS011;67434;50.956;6.918;2023-09-30T01:01:17;3.20;;;1.02;;
49472;SDS011;67434;50.956;6.918;2023-09-30T01:03:45;1.13;;;0.40;;
49472;SDS011;67434;50.956;6.918;2023-09-30T01:06:11;1.30;;;0.65;;
49472;SDS011;67434;50.956;6.918;2023-09-30T01:08:38;0.70;;;0.60;;
49472;SDS011;67434;50.956;6.918;2023-09-30T01:11:03;1.02;;;0.45;;
49472;SDS011;67434;50.956;6.918;2023-09-30T01:13:33;3.85;;;1.27;;
49472;SDS011;67434;50.956;6.918;2023-09-30T01:16:08;2.28;;;1.65;;
49472;SDS011;67434;50.956;6.918;2023-09-30T01:18:35;0.63;;;0.57;;
49472;SDS011;67434;50.956;6.918;2023-09-30T01:21:05;1.90;;;0.77;;
49472;SDS011;67434;50.956;6.918;2023-09-30T01:23:33;4.20;;;1.75;;
49472;SDS011;67434;50.956;6.918;2023-09-30T01:26:03;2.30;;;0.95;;
49472;SDS011;67434;50.956;6.918;2023-09-30T01:28:31;1.90;;;1.35;;
49472;SDS011;67434;50.956;6.918;2023-09-30T01:30:56;1.95;;;1.15;;
49472;SDS011;67434;50.956;6.918;2023-09-30T01:33:22;0.85;;;0.47;;
49472;SDS011;67434;50.956;6.918;2023-09-30T01:35:49;7.03;;;1.52;;
49472;SDS011;67434;50.956;6.918;2023-09-30T01:38:14;1.83;;;0.60;;
49472;SDS011;67434;50.956;6.918;2023-09-30T01:40:40;2.63;;;1.48;;
49472;SDS011;67434;50.956;6.918;2023-09-30T01:43:05;0.43;;;0.35;;
49472;SDS011;67434;50.956;6.918;2023-09-30T01:45:31;9.18;;;1.00;;
49472;SDS011;67434;50.956;6.918;2023-09-30T01:47:56;2.47;;;0.88;;
49472;SDS011;67434;50.956;6.918;2023-09-30T01:50:21;1.73;;;0.82;;
49472;SDS011;67434;50.956;6.918;2023-09-30T01:52:48;3.65;;;1.38;;
49472;SDS011;67434;50.956;6.918;2023-09-30T01:55:13;0.93;;;0.93;;
49472;SDS011;67434;50.956;6.918;2023-09-30T01:57:39;2.17;;;0.98;;
49472;SDS011;67434;50.956;6.918;2023-09-30T02:00:04;1.45;;;1.05;;
49472;SDS011;67434;50.956;6.918;2023-09-30T02:02:34;1.13;;;0.80;;
49472;SDS011;67434;50.956;6.918;2023-09-30T02:05:01;2.92;;;0.52;;
49472;SDS011;67434;50.956;6.918;2023-09-30T02:07:27;1.40;;;0.75;;
49472;SDS011;67434;50.956;6.918;2023-09-30T02:09:54;0.63;;;0.20;;
49472;SDS011;67434;50.956;6.918;2023-09-30T02:12:19;0.40;;;0.30;;
49472;SDS011;67434;50.956;6.918;2023-09-30T02:14:45;9.25;;;2.20;;
49472;SDS011;67434;50.956;6.918;2023-09-30T02:17:11;1.98;;;1.05;;
49472;SDS011;67434;50.956;6.918;2023-09-30T02:19:38;0.88;;;0.40;;
49472;SDS011;67434;50.956;6.918;2023-09-30T02:22:03;1.35;;;0.65;;
49472;SDS011;67434;50.956;6.918;2023-09-30T02:24:29;11.48;;;2.05;;
49472;SDS011;67434;50.956;6.918;2023-09-30T02:26:55;0.98;;;0.30;;
49472;SDS011;67434;50.956;6.918;2023-09-30T02:29:20;1.80;;;0.80;;
49472;SDS011;67434;50.956;6.918;2023-09-30T02:31:46;0.52;;;0.30;;
49472;SDS011;67434;50.956;6.918;2023-09-30T02:34:11;0.75;;;0.32;;
49472;SDS011;67434;50.956;6.918;2023-09-30T02:36:37;1.45;;;0.68;;
49472;SDS011;67434;50.956;6.918;2023-09-30T02:39:05;2.35;;;1.42;;
49472;SDS011;67434;50.956;6.918;2023-09-30T02:41:30;2.92;;;0.77;;
49472;SDS011;67434;50.956;6.918;2023-09-30T02:43:56;0.43;;;0.20;;
49472;SDS011;67434;50.956;6.918;2023-09-30T02:46:21;1.88;;;0.50;;
49472;SDS011;67434;50.956;6.918;2023-09-30T02:48:47;3.47;;;0.68;;
49472;SDS011;67434;50.956;6.918;2023-09-30T02:51:12;1.77;;;0.70;;
49472;SDS011;67434;50.956;6.918;2023-09-30T02:53:37;2.35;;;0.80;;
49472;SDS011;67434;50.956;6.918;2023-09-30T02:56:03;1.52;;;0.70;;
49472;SDS011;67434;50.956;6.918;2023-09-30T02:58:29;1.30;;;0.35;;
49472;SDS011;67434;50.956;6.918;2023-09-30T03:00:55;1.00;;;0.75;;
49472;SDS011;67434;50.956;6.918;2023-09-30T03:03:20;0.32;;;0.32;;
49472;SDS011;67434;50.956;6.918;2023-09-30T03:05:46;1.63;;;0.75;;
49472;SDS011;67434;50.956;6.918;2023-09-30T03:08:15;0.47;;;0.47;;
49472;SDS011;67434;50.956;6.918;2023-09-30T03:10:40;3.05;;;0.90;;
49472;SDS011;67434;50.956;6.918;2023-09-30T03:13:06;0.52;;;0.52;;
49472;SDS011;67434;50.956;6.918;2023-09-30T03:15:34;1.55;;;0.52;;
49472;SDS011;67434;50.956;6.918;2023-09-30T03:18:03;2.58;;;0.77;;
49472;SDS011;67434;50.956;6.918;2023-09-30T03:20:30;5.90;;;0.77;;
49472;SDS011;67434;50.956;6.918;2023-09-30T03:22:56;6.20;;;2.22;;
49472;SDS011;67434;50.956;6.918;2023-09-30T03:25:21;2.63;;;1.05;;
49472;SDS011;67434;50.956;6.918;2023-09-30T03:27:47;2.85;;;1.23;;
49472;SDS011;67434;50.956;6.918;2023-09-30T03:30:14;0.85;;;0.38;;
49472;SDS011;67434;50.956;6.918;2023-09-30T03:32:41;2.63;;;0.98;;
49472;SDS011;67434;50.956;6.918;2023-09-30T03:35:10;0.98;;;0.55;;
49472;SDS011;67434;50.956;6.918;2023-09-30T03:37:42;0.68;;;0.68;;
49472;SDS011;67434;50.956;6.918;2023-09-30T03:40:12;2.53;;;0.85;;
49472;SDS011;67434;50.956;6.918;2023-09-30T03:42:42;0.95;;;0.82;;
49472;SDS011;67434;50.956;6.918;2023-09-30T03:45:08;1.17;;;0.80;;
49472;SDS011;67434;50.956;6.918;2023-09-30T03:47:37;4.05;;;1.45;;
49472;SDS011;67434;50.956;6.918;2023-09-30T03:50:03;4.97;;;1.10;;
49472;SDS011;67434;50.956;6.918;2023-09-30T03:52:33;1.42;;;1.33;;
49472;SDS011;67434;50.956;6.918;2023-09-30T03:55:02;1.00;;;0.88;;
49472;SDS011;67434;50.956;6.918;2023-09-30T03:57:31;4.20;;;0.75;;
49472;SDS011;67434;50.956;6.918;2023-09-30T03:59:59;1.50;;;1.40;;
49472;SDS011;67434;50.956;6.918;2023-09-30T04:02:25;0.57;;;0.43;;
49472;SDS011;67434;50.956;6.918;2023-09-30T04:04:50;1.17;;;0.88;;
49472;SDS011;67434;50.956;6.918;2023-09-30T04:07:18;3.20;;;0.55;;
49472;SDS011;67434;50.956;6.918;2023-09-30T04:09:44;1.50;;;0.93;;
49472;SDS011;67434;50.956;6.918;2023-09-30T04:12:09;2.33;;;1.17;;
49472;SDS011;67434;50.956;6.918;2023-09-30T04:14:34;0.73;;;0.70;;
49472;SDS011;67434;50.956;6.918;2023-09-30T04:17:00;4.28;;;0.85;;
49472;SDS011;67434;50.956;6.918;2023-09-30T04:19:26;0.90;;;0.65;;
49472;SDS011;67434;50.956;6.918;2023-09-30T04:21:55;2.05;;;0.63;;
49472;SDS011;67434;50.956;6.918;2023-09-30T04:24:20;0.60;;;0.40;;
49472;SDS011;67434;50.956;6.918;2023-09-30T04:26:45;1.35;;;0.77;;
49472;SDS011;67434;50.956;6.918;2023-09-30T04:29:11;1.30;;;0.85;;
49472;SDS011;67434;50.956;6.918;2023-09-30T04:31:37;1.90;;;0.40;;
49472;SDS011;67434;50.956;6.918;2023-09-30T04:34:04;0.93;;;0.50;;
49472;SDS011;67434;50.956;6.918;2023-09-30T04:36:29;2.42;;;2.05;;
49472;SDS011;67434;50.956;6.918;2023-09-30T04:38:55;1.75;;;0.77;;
49472;SDS011;67434;50.956;6.918;2023-09-30T04:41:21;2.88;;;1.13;;
49472;SDS011;67434;50.956;6.918;2023-09-30T04:43:46;1.02;;;1.02;;
49472;SDS011;67434;50.956;6.918;2023-09-30T04:46:13;7.05;;;1.52;;
49472;SDS011;67434;50.956;6.918;2023-09-30T04:48:38;2.90;;;0.90;;
49472;SDS011;67434;50.956;6.918;2023-09-30T04:51:08;1.90;;;1.00;;
49472;SDS011;67434;50.956;6.918;2023-09-30T04:53:33;4.55;;;1.52;;
49472;SDS011;67434;50.956;6.918;2023-09-30T04:55:59;2.60;;;1.02;;
49472;SDS011;67434;50.956;6.918;2023-09-30T04:58:25;1.40;;;1.30;;
49472;SDS011;67434;50.956;6.918;2023-09-30T05:00:50;2.67;;;1.08;;
49472;SDS011;67434;50.956;6.918;2023-09-30T05:03:15;1.20;;;0.85;;
49472;SDS011;67434;50.956;6.918;2023-09-30T05:05:41;1.23;;;1.10;;
49472;SDS011;67434;50.956;6.918;2023-09-30T05:08:06;1.98;;;0.90;;
49472;SDS011;67434;50.956;6.918;2023-09-30T05:10:32;1.83;;;1.00;;
49472;SDS011;67434;50.956;6.918;2023-09-30T05:12:58;1.33;;;0.95;;
49472;SDS011;67434;50.956;6.918;2023-09-30T05:15:24;1.27;;;1.15;;
49472;SDS011;67434;50.956;6.918;2023-09-30T05:17:50;10.02;;;1.77;;
49472;SDS011;67434;50.956;6.918;2023-09-30T05:20:16;0.75;;;0.65;;
49472;SDS011;67434;50.956;6.918;2023-09-30T05:22:42;1.48;;;1.38;;
49472;SDS011;67434;50.956;6.918;2023-09-30T05:25:10;2.10;;;1.27;;
49472;SDS011;67434;50.956;6.918;2023-09-30T05:27:37;1.27;;;0.35;;
49472;SDS011;67434;50.956;6.918;2023-09-30T05:30:03;6.35;;;2.30;;
49472;SDS011;67434;50.956;6.918;2023-09-30T05:32:31;1.48;;;1.38;;
49472;SDS011;67434;50.956;6.918;2023-09-30T05:34:56;1.10;;;1.00;;
49472;SDS011;67434;50.956;6.918;2023-09-30T05:37:23;7.15;;;1.63;;
49472;SDS011;67434;50.956;6.918;2023-09-30T05:39:49;1.63;;;0.68;;
49472;SDS011;67434;50.956;6.918;2023-09-30T05:42:16;5.72;;;1.02;;
49472;SDS011;67434;50.956;6.918;2023-09-30T05:44:44;2.80;;;1.05;;
49472;SDS011;67434;50.956;6.918;2023-09-30T05:47:10;1.15;;;1.05;;
49472;SDS011;67434;50.956;6.918;2023-09-30T05:49:37;1.08;;;0.65;;
49472;SDS011;67434;50.956;6.918;2023-09-30T05:52:03;2.92;;;2.03;;
49472;SDS011;67434;50.956;6.918;2023-09-30T05:54:30;0.55;;;0.47;;
49472;SDS011;67434;50.956;6.918;2023-09-30T05:56:55;0.80;;;0.60;;
49472;SDS011;67434;50.956;6.918;2023-09-30T05:59:21;0.70;;;0.65;;
49472;SDS011;67434;50.956;6.918;2023-09-30T06:01:47;3.30;;;1.52;;
49472;SDS011;67434;50.956;6.918;2023-09-30T06:04:12;1.20;;;0.55;;
49472;SDS011;67434;50.956;6.918;2023-09-30T06:06:37;1.35;;;1.00;;
49472;SDS011;67434;50.956;6.918;2023-09-30T06:09:03;0.88;;;0.77;;
49472;SDS011;67434;50.956;6.918;2023-09-30T06:11:32;1.27;;;0.70;;
49472;SDS011;67434;50.956;6.918;2023-09-30T06:13:58;6.63;;;1.92;;
49472;SDS011;67434;50.956;6.918;2023-09-30T06:16:24;2.55;;;0.88;;
49472;SDS011;67434;50.956;6.918;2023-09-30T06:18:51;0.98;;;0.75;;
49472;SDS011;67434;50.956;6.918;2023-09-30T06:21:18;2.50;;;1.05;;
49472;SDS011;67434;50.956;6.918;2023-09-30T06:23:46;0.40;;;0.40;;
49472;SDS011;67434;50.956;6.918;2023-09-30T06:26:13;1.13;;;0.60;;
49472;SDS011;67434;50.956;6.918;2023-09-30T06:28:38;0.65;;;0.25;;
49472;SDS011;67434;50.956;6.918;2023-09-30T06:31:07;2.35;;;1.00;;
49472;SDS011;67434;50.956;6.918;2023-09-30T06:33:33;1.58;;;1.10;;
49472;SDS011;67434;50.956;6.918;2023-09-30T06:35:59;2.30;;;1.63;;
49472;SDS011;67434;50.956;6.918;2023-09-30T06:38:27;7.10;;;2.70;;
49472;SDS011;67434;50.956;6.918;2023-09-30T06:40:52;1.83;;;1.20;;
49472;SDS011;67434;50.956;6.918;2023-09-30T06:43:19;3.15;;;1.42;;
49472;SDS011;67434;50.956;6.918;2023-09-30T06:45:45;0.60;;;0.35;;
49472;SDS011;67434;50.956;6.918;2023-09-30T06:48:11;1.85;;;1.20;;
49472;SDS011;67434;50.956;6.918;2023-09-30T06:50:44;6.38;;;1.85;;
49472;SDS011;67434;50.956;6.918;2023-09-30T06:53:10;1.15;;;0.88;;
49472;SDS011;67434;50.956;6.918;2023-09-30T06:55:37;5.80;;;2.40;;
49472;SDS011;67434;50.956;6.918;2023-09-30T06:58:05;3.35;;;1.17;;
49472;SDS011;67434;50.956;6.918;2023-09-30T07:00:33;1.67;;;1.58;;
49472;SDS011;67434;50.956;6.918;2023-09-30T07:02:58;1.35;;;0.88;;
49472;SDS011;67434;50.956;6.918;2023-09-30T07:05:24;1.33;;;1.23;;
49472;SDS011;67434;50.956;6.918;2023-09-30T07:07:49;3.35;;;1.25;;
49472;SDS011;67434;50.956;6.918;2023-09-30T07:10:16;5.05;;;2.47;;
49472;SDS011;67434;50.956;6.918;2023-09-30T07:12:41;2.33;;;1.27;;
49472;SDS011;67434;50.956;6.918;2023-09-30T07:15:07;4.10;;;2.17;;
49472;SDS011;67434;50.956;6.918;2023-09-30T07:17:33;2.47;;;1.73;;
49472;SDS011;67434;50.956;6.918;2023-09-30T07:20:00;4.45;;;1.73;;
49472;SDS011;67434;50.956;6.918;2023-09-30T07:22:26;4.53;;;1.27;;
49472;SDS011;67434;50.956;6.918;2023-09-30T07:24:51;3.75;;;2.20;;
49472;SDS011;67434;50.956;6.918;2023-09-30T07:27:17;4.25;;;1.55;;
49472;SDS011;67434;50.956;6.918;2023-09-30T07:29:43;4.63;;;1.98;;
49472;SDS011;67434;50.956;6.918;2023-09-30T07:32:09;3.50;;;1.70;;
49472;SDS011;67434;50.956;6.918;2023-09-30T07:34:35;5.18;;;2.47;;
49472;SDS011;67434;50.956;6.918;2023-09-30T07:37:00;3.25;;;2.05;;
49472;SDS011;67434;50.956;6.918;2023-09-30T07:39:26;1.00;;;0.82;;
49472;SDS011;67434;50.956;6.918;2023-09-30T07:41:51;3.55;;;1.55;;
49472;SDS011;67434;50.956;6.918;2023-09-30T07:44:17;5.45;;;1.80;;
49472;SDS011;67434;50.956;6.918;2023-09-30T07:46:43;4.93;;;3.40;;
49472;SDS011;67434;50.956;6.918;2023-09-30T07:49:08;2.30;;;1.52;;
49472;SDS011;67434;50.956;6.918;2023-09-30T07:51:35;3.72;;;1.83;;
49472;SDS011;67434;50.956;6.918;2023-09-30T07:54:01;5.13;;;1.95;;
49472;SDS011;67434;50.956;6.918;2023-09-30T07:56:26;4.00;;;2.03;;
49472;SDS011;67434;50.956;6.918;2023-09-30T07:58:52;2.50;;;0.88;;
49472;SDS011;67434;50.956;6.918;2023-09-30T08:01:17;5.75;;;2.08;;
49472;SDS011;67434;50.956;6.918;2023-09-30T08:03:43;2.65;;;1.15;;
49472;SDS011;67434;50.956;6.918;2023-09-30T08:06:09;3.17;;;2.17;;
49472;SDS011;67434;50.956;6.918;2023-09-30T08:08:34;5.10;;;1.05;;
49472;SDS011;67434;50.956;6.918;2023-09-30T08:11:01;2.67;;;1.08;;
49472;SDS011;67434;50.956;6.918;2023-09-30T08:13:26;3.42;;;1.65;;
49472;SDS011;67434;50.956;6.918;2023-09-30T08:15:52;1.88;;;1.27;;
49472;SDS011;67434;50.956;6.918;2023-09-30T08:18:18;2.75;;;1.60;;
49472;SDS011;67434;50.956;6.918;2023-09-30T08:20:44;2.45;;;2.08;;
49472;SDS011;67434;50.956;6.918;2023-09-30T08:23:09;3.63;;;1.55;;
49472;SDS011;67434;50.956;6.918;2023-09-30T08:25:36;2.92;;;1.85;;
49472;SDS011;67434;50.956;6.918;2023-09-30T08:28:03;3.45;;;2.67;;
49472;SDS011;67434;50.956;6.918;2023-09-30T08:30:29;4.43;;;2.97;;
49472;SDS011;67434;50.956;6.918;2023-09-30T08:32:54;6.82;;;2.17;;
49472;SDS011;67434;50.956;6.918;2023-09-30T08:35:19;3.85;;;2.05;;
49472;SDS011;67434;50.956;6.918;2023-09-30T08:37:45;3.20;;;1.98;;
49472;SDS011;67434;50.956;6.918;2023-09-30T08:40:11;5.40;;;2.83;;
49472;SDS011;67434;50.956;6.918;2023-09-30T08:42:41;3.10;;;2.55;;
49472;SDS011;67434;50.956;6.918;2023-09-30T08:45:07;2.80;;;1.63;;
49472;SDS011;67434;50.956;6.918;2023-09-30T08:47:37;2.72;;;1.52;;
49472;SDS011;67434;50.956;6.918;2023-09-30T08:50:03;3.55;;;2.08;;
49472;SDS011;67434;50.956;6.918;2023-09-30T08:52:33;6.05;;;2.63;;
49472;SDS011;67434;50.956;6.918;2023-09-30T08:55:00;4.28;;;2.15;;
49472;SDS011;67434;50.956;6.918;2023-09-30T08:57:26;4.35;;;3.15;;
49472;SDS011;67434;50.956;6.918;2023-09-30T09:00:02;5.40;;;2.25;;
49472;SDS011;67434;50.956;6.918;2023-09-30T09:02:29;5.40;;;1.77;;
49472;SDS011;67434;50.956;6.918;2023-09-30T09:04:54;4.30;;;1.85;;
49472;SDS011;67434;50.956;6.918;2023-09-30T09:07:20;4.63;;;1.55;;
49472;SDS011;67434;50.956;6.918;2023-09-30T09:12:30;6.25;;;3.22;;
49472;SDS011;67434;50.956;6.918;2023-09-30T09:14:56;7.32;;;2.20;;
49472;SDS011;67434;50.956;6.918;2023-09-30T09:17:21;4.63;;;2.72;;
49472;SDS011;67434;50.956;6.918;2023-09-30T09:20:00;3.83;;;2.00;;
49472;SDS011;67434;50.956;6.918;2023-09-30T09:22:37;3.70;;;2.78;;
49472;SDS011;67434;50.956;6.918;2023-09-30T09:25:03;4.63;;;2.03;;
49472;SDS011;67434;50.956;6.918;2023-09-30T09:27:30;4.78;;;1.98;;
49472;SDS011;67434;50.956;6.918;2023-09-30T09:30:14;8.18;;;2.38;;
49472;SDS011;67434;50.956;6.918;2023-09-30T09:32:54;5.13;;;2.53;;
49472;SDS011;67434;50.956;6.918;2023-09-30T09:35:25;4.78;;;1.45;;
49472;SDS011;67434;50.956;6.918;2023-09-30T09:37:58;5.07;;;3.08;;
49472;SDS011;67434;50.956;6.918;2023-09-30T09:40:29;6.10;;;2.75;;
49472;SDS011;67434;50.956;6.918;2023-09-30T09:42:59;6.38;;;3.20;;
49472;SDS011;67434;50.956;6.918;2023-09-30T09:45:27;3.70;;;1.88;;
49472;SDS011;67434;50.956;6.918;2023-09-30T09:47:53;2.95;;;2.20;;
49472;SDS011;67434;50.956;6.918;2023-09-30T09:50:20;4.40;;;2.72;;
49472;SDS011;67434;50.956;6.918;2023-09-30T09:52:53;6.88;;;3.20;;
49472;SDS011;67434;50.956;6.918;2023-09-30T09:55:21;5.70;;;2.85;;
49472;SDS011;67434;50.956;6.918;2023-09-30T09:57:48;3.63;;;2.70;;
49472;SDS011;67434;50.956;6.918;2023-09-30T10:00:18;4.50;;;2.30;;
49472;SDS011;67434;50.956;6.918;2023-09-30T10:02:49;6.57;;;4.03;;
49472;SDS011;67434;50.956;6.918;2023-09-30T10:05:16;3.88;;;3.13;;
49472;SDS011;67434;50.956;6.918;2023-09-30T10:10:45;9.18;;;4.45;;
49472;SDS011;67434;50.956;6.918;2023-09-30T10:19:06;4.15;;;2.38;;
49472;SDS011;67434;50.956;6.918;2023-09-30T10:21:33;2.38;;;1.73;;
49472;SDS011;67434;50.956;6.918;2023-09-30T10:35:16;3.55;;;2.63;;
49472;SDS011;67434;50.956;6.918;2023-09-30T10:37:43;6.07;;;2.08;;
49472;SDS011;67434;50.956;6.918;2023-09-30T10:40:10;3.05;;;1.85;;
49472;SDS011;67434;50.956;6.918;2023-09-30T10:42:51;2.70;;;1.65;;
49472;SDS011;67434;50.956;6.918;2023-09-30T10:50:59;2.10;;;0.93;;
49472;SDS011;67434;50.956;6.918;2023-09-30T10:53:26;7.97;;;1.92;;
49472;SDS011;67434;50.956;6.918;2023-09-30T10:55:59;0.80;;;0.80;;
49472;SDS011;67434;50.956;6.918;2023-09-30T11:01:10;3.77;;;2.00;;
49472;SDS011;67434;50.956;6.918;2023-09-30T11:03:38;2.25;;;1.88;;
49472;SDS011;67434;50.956;6.918;2023-09-30T11:06:04;2.58;;;2.38;;
49472;SDS011;67434;50.956;6.918;2023-09-30T11:08:30;3.22;;;1.50;;
49472;SDS011;67434;50.956;6.918;2023-09-30T11:10:55;5.05;;;1.88;;
49472;SDS011;67434;50.956;6.918;2023-09-30T11:13:21;2.33;;;1.33;;
49472;SDS011;67434;50.956;6.918;2023-09-30T11:15:47;2.80;;;0.68;;
49472;SDS011;67434;50.956;6.918;2023-09-30T11:18:16;2.30;;;1.33;;
49472;SDS011;67434;50.956;6.918;2023-09-30T11:20:43;2.30;;;1.30;;
49472;SDS011;67434;50.956;6.918;2023-09-30T11:23:09;10.07;;;2.20;;
49472;SDS011;67434;50.956;6.918;2023-09-30T11:25:36;7.22;;;0.95;;
49472;SDS011;67434;50.956;6.918;2023-09-30T11:28:17;1.08;;;0.30;;
49472;SDS011;67434;50.956;6.918;2023-09-30T11:30:59;1.88;;;1.08;;
49472;SDS011;67434;50.956;6.918;2023-09-30T11:33:27;2.58;;;1.55;;
49472;SDS011;67434;50.956;6.918;2023-09-30T11:36:03;6.07;;;0.80;;
49472;SDS011;67434;50.956;6.918;2023-09-30T11:38:30;0.45;;;0.45;;
49472;SDS011;67434;50.956;6.918;2023-09-30T11:41:00;2.25;;;0.93;;
49472;SDS011;67434;50.956;6.918;2023-09-30T11:43:31;1.10;;;0.90;;
49472;SDS011;67434;50.956;6.918;2023-09-30T11:46:08;2.70;;;0.63;;
49472;SDS011;67434;50.956;6.918;2023-09-30T11:48:36;1.25;;;0.73;;
49472;SDS011;67434;50.956;6.918;2023-09-30T11:51:03;1.77;;;0.70;;
49472;SDS011;67434;50.956;6.918;2023-09-30T11:53:29;1.65;;;0.70;;
49472;SDS011;67434;50.956;6.918;2023-09-30T11:55:56;1.17;;;0.98;;
49472;SDS011;67434;50.956;6.918;2023-09-30T11:58:23;1.35;;;0.45;;
49472;SDS011;67434;50.956;6.918;2023-09-30T12:00:52;1.67;;;1.17;;
49472;SDS011;67434;50.956;6.918;2023-09-30T12:03:18;0.93;;;0.38;;
49472;SDS011;67434;50.956;6.918;2023-09-30T12:05:45;1.48;;;0.50;;
49472;SDS011;67434;50.956;6.918;2023-09-30T12:08:11;1.65;;;0.60;;
49472;SDS011;67434;50.956;6.918;2023-09-30T12:10:37;3.13;;;1.38;;
49472;SDS011;67434;50.956;6.918;2023-09-30T12:13:02;2.65;;;0.73;;
49472;SDS011;67434;50.956;6.918;2023-09-30T12:15:28;1.05;;;0.55;;
49472;SDS011;67434;50.956;6.918;2023-09-30T12:17:53;1.38;;;0.85;;
49472;SDS011;67434;50.956;6.918;2023-09-30T12:20:20;1.95;;;0.90;;
49472;SDS011;67434;50.956;6.918;2023-09-30T12:22:47;1.15;;;0.63;;
49472;SDS011;67434;50.956;6.918;2023-09-30T12:25:13;0.75;;;0.47;;
49472;SDS011;67434;50.956;6.918;2023-09-30T12:27:39;0.45;;;0.40;;
49472;SDS011;67434;50.956;6.918;2023-09-30T12:30:05;0.60;;;0.30;;
49472;SDS011;67434;50.956;6.918;2023-09-30T12:32:31;4.80;;;0.30;;
49472;SDS011;67434;50.956;6.918;2023-09-30T12:34:57;1.73;;;0.70;;
49472;SDS011;67434;50.956;6.918;2023-09-30T12:37:22;0.77;;;0.40;;
49472;SDS011;67434;50.956;6.918;2023-09-30T12:39:48;1.75;;;0.95;;
49472;SDS011;67434;50.956;6.918;2023-09-30T12:42:13;2.40;;;0.38;;
49472;SDS011;67434;50.956;6.918;2023-09-30T12:44:40;1.75;;;0.20;;
49472;SDS011;67434;50.956;6.918;2023-09-30T12:47:06;2.20;;;0.60;;
49472;SDS011;67434;50.956;6.918;2023-09-30T12:49:36;2.10;;;0.38;;
49472;SDS011;67434;50.956;6.918;2023-09-30T12:52:01;4.40;;;0.40;;
49472;SDS011;67434;50.956;6.918;2023-09-30T12:54:27;1.52;;;0.82;;
49472;SDS011;67434;50.956;6.918;2023-09-30T12:56:52;0.68;;;0.68;;
49472;SDS011;67434;50.956;6.918;2023-09-30T12:59:18;2.08;;;0.57;;
49472;SDS011;67434;50.956;6.918;2023-09-30T13:01:44;1.83;;;0.35;;
49472;SDS011;67434;50.956;6.918;2023-09-30T13:04:11;5.00;;;1.55;;
49472;SDS011;67434;50.956;6.918;2023-09-30T13:06:37;1.67;;;0.93;;
49472;SDS011;67434;50.956;6.918;2023-09-30T13:09:02;0.70;;;0.40;;
49472;SDS011;67434;50.956;6.918;2023-09-30T13:11:31;4.32;;;0.57;;
49472;SDS011;67434;50.956;6.918;2023-09-30T13:13:56;4.93;;;0.32;;
49472;SDS011;67434;50.956;6.918;2023-09-30T13:16:21;0.70;;;0.55;;
49472;SDS011;67434;50.956;6.918;2023-09-30T13:18:47;2.83;;;0.80;;
49472;SDS011;67434;50.956;6.918;2023-09-30T13:21:13;1.98;;;1.13;;
49472;SDS011;67434;50.956;6.918;2023-09-30T13:23:41;0.55;;;0.32;;
49472;SDS011;67434;50.956;6.918;2023-09-30T13:26:07;0.50;;;0.20;;
49472;SDS011;67434;50.956;6.918;2023-09-30T13:28:32;0.88;;;0.32;;
49472;SDS011;67434;50.956;6.918;2023-09-30T13:30:58;1.30;;;0.50;;
49472;SDS011;67434;50.956;6.918;2023-09-30T13:33:23;1.17;;;0.60;;
49472;SDS011;67434;50.956;6.918;2023-09-30T13:35:49;0.75;;;0.40;;
49472;SDS011;67434;50.956;6.918;2023-09-30T13:38:14;0.17;;;0.10;;
49472;SDS011;67434;50.956;6.918;2023-09-30T13:40:41;2.70;;;0.60;;
49472;SDS011;67434;50.956;6.918;2023-09-30T13:43:07;0.40;;;0.40;;
49472;SDS011;67434;50.956;6.918;2023-09-30T13:45:32;0.68;;;0.50;;
49472;SDS011;67434;50.956;6.918;2023-09-30T13:47:57;1.35;;;0.20;;
49472;SDS011;67434;50.956;6.918;2023-09-30T13:50:23;2.22;;;0.57;;
49472;SDS011;67434;50.956;6.918;2023-09-30T13:52:48;2.17;;;0.82;;
49472;SDS011;67434;50.956;6.918;2023-09-30T13:55:14;0.85;;;0.17;;
49472;SDS011;67434;50.956;6.918;2023-09-30T13:57:44;0.47;;;0.45;;
49472;SDS011;67434;50.956;6.918;2023-09-30T14:00:15;0.65;;;0.40;;
49472;SDS011;67434;50.956;6.918;2023-09-30T14:02:42;0.55;;;0.28;;
49472;SDS011;67434;50.956;6.918;2023-09-30T14:05:08;0.20;;;0.20;;
49472;SDS011;67434;50.956;6.918;2023-09-30T14:07:37;1.10;;;0.52;;
49472;SDS011;67434;50.956;6.918;2023-09-30T14:10:03;2.40;;;0.25;;
49472;SDS011;67434;50.956;6.918;2023-09-30T14:12:29;0.70;;;0.70;;
49472;SDS011;67434;50.956;6.918;2023-09-30T14:14:54;0.50;;;0.20;;
49472;SDS011;67434;50.956;6.918;2023-09-30T14:17:20;0.68;;;0.30;;
49472;SDS011;67434;50.956;6.918;2023-09-30T14:19:45;3.67;;;0.70;;
49472;SDS011;67434;50.956;6.918;2023-09-30T14:22:11;0.52;;;0.30;;
49472;SDS011;67434;50.956;6.918;2023-09-30T14:24:37;3.03;;;0.10;;
49472;SDS011;67434;50.956;6.918;2023-09-30T14:27:03;1.35;;;0.38;;
49472;SDS011;67434;50.956;6.918;2023-09-30T14:29:29;0.30;;;0.30;;
49472;SDS011;67434;50.956;6.918;2023-09-30T14:31:56;1.65;;;0.68;;
49472;SDS011;67434;50.956;6.918;2023-09-30T14:34:23;0.93;;;0.52;;
49472;SDS011;67434;50.956;6.918;2023-09-30T14:36:49;1.05;;;0.13;;
49472;SDS011;67434;50.956;6.918;2023-09-30T14:39:15;0.25;;;0.25;;
49472;SDS011;67434;50.956;6.918;2023-09-30T14:41:42;2.55;;;1.15;;
49472;SDS011;67434;50.956;6.918;2023-09-30T14:44:09;3.83;;;1.35;;
49472;SDS011;67434;50.956;6.918;2023-09-30T14:46:37;0.40;;;0.40;;
49472;SDS011;67434;50.956;6.918;2023-09-30T14:49:06;0.40;;;0.30;;
49472;SDS011;67434;50.956;6.918;2023-09-30T14:51:33;3.05;;;0.60;;
49472;SDS011;67434;50.956;6.918;2023-09-30T14:53:59;1.13;;;0.40;;
49472;SDS011;67434;50.956;6.918;2023-09-30T14:56:24;0.60;;;0.20;;
49472;SDS011;67434;50.956;6.918;2023-09-30T14:58:51;1.17;;;0.30;;
49472;SDS011;67434;50.956;6.918;2023-09-30T15:01:16;3.03;;;0.55;;
49472;SDS011;67434;50.956;6.918;2023-09-30T15:03:42;3.00;;;1.10;;
49472;SDS011;67434;50.956;6.918;2023-09-30T15:06:09;0.30;;;0.10;;
49472;SDS011;67434;50.956;6.918;2023-09-30T15:08:34;0.52;;;0.20;;
49472;SDS011;67434;50.956;6.918;2023-09-30T15:11:00;0.50;;;0.25;;
49472;SDS011;67434;50.956;6.918;2023-09-30T15:13:26;0.77;;;0.68;;
49472;SDS011;67434;50.956;6.918;2023-09-30T15:15:52;0.75;;;0.30;;
49472;SDS011;67434;50.956;6.918;2023-09-30T15:18:18;1.05;;;0.38;;